sensor_id;sensor_type;location;lat;lon;timestamp;P1;durP1;ratioP1;P2;durP2;ratioP2
24559;SDS011;12727;49.934;8.656;2023-07-20T00:02:19;5.72;;;1.83;;
24559;SDS011;12727;49.934;8.656;2023-07-20T00:04:45;5.68;;;1.70;;
24559;SDS011;12727;49.934;8.656;2023-07-20T00:07:10;4.10;;;1.70;;
24559;SDS011;12727;49.934;8.656;2023-07-20T00:09:36;4.00;;;1.60;;
24559;SDS011;12727;49.934;8.656;2023-07-20T00:12:02;4.53;;;1.58;;
24559;SDS011;12727;49.934;8.656;2023-07-20T00:14:27;3.85;;;1.80;;
24559;SDS011;12727;49.934;8.656;2023-07-20T00:16:54;4.20;;;1.80;;
24559;SDS011;12727;49.934;8.656;2023-07-20T00:19:27;6.22;;;1.40;;
24559;SDS011;12727;49.934;8.656;2023-07-20T00:21:53;4.50;;;1.60;;
24559;SDS011;12727;49.934;8.656;2023-07-20T00:24:22;4.40;;;1.67;;
24559;SDS011;12727;49.934;8.656;2023-07-20T00:26:48;5.55;;;1.73;;
24559;SDS011;12727;49.934;8.656;2023-07-20T00:29:14;6.03;;;1.80;;
24559;SDS011;12727;49.934;8.656;2023-07-20T00:31:39;4.85;;;1.73;;
24559;SDS011;12727;49.934;8.656;2023-07-20T00:34:05;6.13;;;2.00;;
24559;SDS011;12727;49.934;8.656;2023-07-20T00:36:31;4.90;;;1.75;;
24559;SDS011;12727;49.934;8.656;2023-07-20T00:38:57;4.70;;;2.00;;
24559;SDS011;12727;49.934;8.656;2023-07-20T00:41:23;4.60;;;1.67;;
24559;SDS011;12727;49.934;8.656;2023-07-20T00:43:48;3.70;;;1.67;;
24559;SDS011;12727;49.934;8.656;2023-07-20T00:46:15;3.42;;;1.80;;
24559;SDS011;12727;49.934;8.656;2023-07-20T00:48:41;3.67;;;1.73;;
24559;SDS011;12727;49.934;8.656;2023-07-20T00:51:07;4.95;;;1.90;;
24559;SDS011;12727;49.934;8.656;2023-07-20T00:53:33;4.07;;;2.00;;
24559;SDS011;12727;49.934;8.656;2023-07-20T00:55:58;5.90;;;1.70;;
24559;SDS011;12727;49.934;8.656;2023-07-20T00:58:24;4.88;;;1.90;;
24559;SDS011;12727;49.934;8.656;2023-07-20T01:00:50;3.47;;;1.85;;
24559;SDS011;12727;49.934;8.656;2023-07-20T01:03:16;5.13;;;1.63;;
24559;SDS011;12727;49.934;8.656;2023-07-20T01:05:43;5.05;;;1.80;;
24559;SDS011;12727;49.934;8.656;2023-07-20T01:08:24;4.07;;;1.98;;
24559;SDS011;12727;49.934;8.656;2023-07-20T01:11:28;6.57;;;1.73;;
24559;SDS011;12727;49.934;8.656;2023-07-20T01:13:51;3.35;;;1.90;;
24559;SDS011;12727;49.934;8.656;2023-07-20T01:16:17;4.72;;;2.08;;
24559;SDS011;12727;49.934;8.656;2023-07-20T01:18:42;5.25;;;2.10;;
24559;SDS011;12727;49.934;8.656;2023-07-20T01:21:13;4.53;;;1.80;;
24559;SDS011;12727;49.934;8.656;2023-07-20T01:23:57;6.20;;;2.33;;
24559;SDS011;12727;49.934;8.656;2023-07-20T01:29:41;4.88;;;2.13;;
24559;SDS011;12727;49.934;8.656;2023-07-20T01:32:28;3.22;;;1.92;;
24559;SDS011;12727;49.934;8.656;2023-07-20T01:34:55;5.90;;;2.22;;
24559;SDS011;12727;49.934;8.656;2023-07-20T01:37:23;4.90;;;1.92;;
24559;SDS011;12727;49.934;8.656;2023-07-20T01:39:53;3.20;;;1.73;;
24559;SDS011;12727;49.934;8.656;2023-07-20T01:42:22;4.70;;;1.70;;
24559;SDS011;12727;49.934;8.656;2023-07-20T01:44:52;3.83;;;1.80;;
24559;SDS011;12727;49.934;8.656;2023-07-20T01:47:18;4.00;;;2.10;;
24559;SDS011;12727;49.934;8.656;2023-07-20T01:49:44;4.85;;;2.53;;
24559;SDS011;12727;49.934;8.656;2023-07-20T01:52:10;4.22;;;2.13;;
24559;SDS011;12727;49.934;8.656;2023-07-20T01:54:35;5.55;;;2.28;;
24559;SDS011;12727;49.934;8.656;2023-07-20T01:57:01;4.38;;;2.20;;
24559;SDS011;12727;49.934;8.656;2023-07-20T01:59:27;4.13;;;2.03;;
24559;SDS011;12727;49.934;8.656;2023-07-20T02:01:52;4.97;;;2.50;;
24559;SDS011;12727;49.934;8.656;2023-07-20T02:04:18;4.03;;;1.98;;
24559;SDS011;12727;49.934;8.656;2023-07-20T02:06:43;5.22;;;2.33;;
24559;SDS011;12727;49.934;8.656;2023-07-20T02:09:09;6.57;;;2.10;;
24559;SDS011;12727;49.934;8.656;2023-07-20T02:11:34;4.25;;;2.00;;
24559;SDS011;12727;49.934;8.656;2023-07-20T02:14:00;4.60;;;2.30;;
24559;SDS011;12727;49.934;8.656;2023-07-20T02:16:25;3.92;;;2.33;;
24559;SDS011;12727;49.934;8.656;2023-07-20T02:18:52;4.93;;;2.30;;
24559;SDS011;12727;49.934;8.656;2023-07-20T02:21:18;4.85;;;2.13;;
24559;SDS011;12727;49.934;8.656;2023-07-20T02:23:43;2.72;;;2.00;;
24559;SDS011;12727;49.934;8.656;2023-07-20T02:26:09;5.00;;;2.03;;
24559;SDS011;12727;49.934;8.656;2023-07-20T02:28:34;5.18;;;2.13;;
24559;SDS011;12727;49.934;8.656;2023-07-20T02:31:00;3.80;;;2.03;;
24559;SDS011;12727;49.934;8.656;2023-07-20T02:33:25;4.25;;;2.08;;
24559;SDS011;12727;49.934;8.656;2023-07-20T02:35:51;3.20;;;2.10;;
24559;SDS011;12727;49.934;8.656;2023-07-20T02:38:17;3.63;;;2.08;;
24559;SDS011;12727;49.934;8.656;2023-07-20T02:40:42;4.50;;;1.90;;
24559;SDS011;12727;49.934;8.656;2023-07-20T02:43:08;3.20;;;2.25;;
24559;SDS011;12727;49.934;8.656;2023-07-20T02:45:34;6.75;;;2.33;;
24559;SDS011;12727;49.934;8.656;2023-07-20T02:48:00;6.82;;;2.50;;
24559;SDS011;12727;49.934;8.656;2023-07-20T02:50:28;4.88;;;2.38;;
24559;SDS011;12727;49.934;8.656;2023-07-20T02:52:53;5.00;;;2.40;;
24559;SDS011;12727;49.934;8.656;2023-07-20T02:55:19;6.32;;;2.80;;
24559;SDS011;12727;49.934;8.656;2023-07-20T02:57:45;7.75;;;2.35;;
24559;SDS011;12727;49.934;8.656;2023-07-20T03:00:11;3.72;;;2.35;;
24559;SDS011;12727;49.934;8.656;2023-07-20T03:02:40;4.88;;;2.35;;
24559;SDS011;12727;49.934;8.656;2023-07-20T03:05:06;5.03;;;2.15;;
24559;SDS011;12727;49.934;8.656;2023-07-20T03:07:32;3.50;;;2.15;;
24559;SDS011;12727;49.934;8.656;2023-07-20T03:09:57;4.53;;;2.28;;
24559;SDS011;12727;49.934;8.656;2023-07-20T03:12:23;5.47;;;2.30;;
24559;SDS011;12727;49.934;8.656;2023-07-20T03:14:49;6.15;;;2.42;;
24559;SDS011;12727;49.934;8.656;2023-07-20T03:17:15;5.38;;;2.33;;
24559;SDS011;12727;49.934;8.656;2023-07-20T03:19:40;4.78;;;2.30;;
24559;SDS011;12727;49.934;8.656;2023-07-20T03:22:06;3.67;;;2.15;;
24559;SDS011;12727;49.934;8.656;2023-07-20T03:24:32;7.35;;;2.40;;
24559;SDS011;12727;49.934;8.656;2023-07-20T03:26:58;4.97;;;2.38;;
24559;SDS011;12727;49.934;8.656;2023-07-20T03:29:24;4.40;;;2.38;;
24559;SDS011;12727;49.934;8.656;2023-07-20T03:31:50;3.90;;;2.38;;
24559;SDS011;12727;49.934;8.656;2023-07-20T03:34:15;6.40;;;2.30;;
24559;SDS011;12727;49.934;8.656;2023-07-20T03:36:41;5.57;;;2.55;;
24559;SDS011;12727;49.934;8.656;2023-07-20T03:39:07;4.18;;;2.55;;
24559;SDS011;12727;49.934;8.656;2023-07-20T03:41:32;4.97;;;2.33;;
24559;SDS011;12727;49.934;8.656;2023-07-20T03:43:58;4.35;;;2.10;;
24559;SDS011;12727;49.934;8.656;2023-07-20T03:46:23;3.15;;;2.17;;
24559;SDS011;12727;49.934;8.656;2023-07-20T03:48:49;3.55;;;2.40;;
24559;SDS011;12727;49.934;8.656;2023-07-20T03:51:14;6.25;;;2.60;;
24559;SDS011;12727;49.934;8.656;2023-07-20T03:53:40;4.80;;;2.28;;
24559;SDS011;12727;49.934;8.656;2023-07-20T03:56:06;4.10;;;2.20;;
24559;SDS011;12727;49.934;8.656;2023-07-20T03:58:31;8.20;;;2.33;;
24559;SDS011;12727;49.934;8.656;2023-07-20T04:00:57;3.92;;;2.50;;
24559;SDS011;12727;49.934;8.656;2023-07-20T04:03:23;5.65;;;2.17;;
24559;SDS011;12727;49.934;8.656;2023-07-20T04:05:51;6.05;;;2.10;;
24559;SDS011;12727;49.934;8.656;2023-07-20T04:08:20;2.83;;;2.40;;
24559;SDS011;12727;49.934;8.656;2023-07-20T04:10:46;6.90;;;2.33;;
24559;SDS011;12727;49.934;8.656;2023-07-20T04:13:11;3.95;;;2.70;;
24559;SDS011;12727;49.934;8.656;2023-07-20T04:15:37;4.97;;;2.33;;
24559;SDS011;12727;49.934;8.656;2023-07-20T04:18:03;6.65;;;2.85;;
24559;SDS011;12727;49.934;8.656;2023-07-20T04:20:29;4.00;;;2.42;;
24559;SDS011;12727;49.934;8.656;2023-07-20T04:22:54;5.53;;;2.47;;
24559;SDS011;12727;49.934;8.656;2023-07-20T04:25:20;4.45;;;2.40;;
24559;SDS011;12727;49.934;8.656;2023-07-20T04:27:45;5.25;;;2.35;;
24559;SDS011;12727;49.934;8.656;2023-07-20T04:30:11;4.35;;;2.42;;
24559;SDS011;12727;49.934;8.656;2023-07-20T04:32:38;7.65;;;2.38;;
24559;SDS011;12727;49.934;8.656;2023-07-20T04:35:10;5.85;;;2.55;;
24559;SDS011;12727;49.934;8.656;2023-07-20T04:37:36;5.22;;;2.40;;
24559;SDS011;12727;49.934;8.656;2023-07-20T04:40:02;6.47;;;2.30;;
24559;SDS011;12727;49.934;8.656;2023-07-20T04:42:28;7.03;;;2.50;;
24559;SDS011;12727;49.934;8.656;2023-07-20T04:44:54;4.80;;;2.42;;
24559;SDS011;12727;49.934;8.656;2023-07-20T04:47:19;4.38;;;2.20;;
24559;SDS011;12727;49.934;8.656;2023-07-20T04:49:45;7.40;;;2.35;;
24559;SDS011;12727;49.934;8.656;2023-07-20T04:52:10;7.85;;;2.20;;
24559;SDS011;12727;49.934;8.656;2023-07-20T04:54:36;6.95;;;2.33;;
24559;SDS011;12727;49.934;8.656;2023-07-20T04:57:01;4.57;;;2.33;;
24559;SDS011;12727;49.934;8.656;2023-07-20T04:59:27;7.72;;;2.20;;
24559;SDS011;12727;49.934;8.656;2023-07-20T05:01:52;5.65;;;2.08;;
24559;SDS011;12727;49.934;8.656;2023-07-20T05:04:18;7.60;;;2.45;;
24559;SDS011;12727;49.934;8.656;2023-07-20T05:06:43;5.22;;;1.92;;
24559;SDS011;12727;49.934;8.656;2023-07-20T05:09:09;4.05;;;2.10;;
24559;SDS011;12727;49.934;8.656;2023-07-20T05:11:35;7.10;;;2.05;;
24559;SDS011;12727;49.934;8.656;2023-07-20T05:14:00;6.10;;;1.90;;
24559;SDS011;12727;49.934;8.656;2023-07-20T05:16:26;6.40;;;1.95;;
24559;SDS011;12727;49.934;8.656;2023-07-20T05:18:51;8.63;;;2.15;;
24559;SDS011;12727;49.934;8.656;2023-07-20T05:21:17;8.75;;;2.63;;
24559;SDS011;12727;49.934;8.656;2023-07-20T05:23:42;4.88;;;2.30;;
24559;SDS011;12727;49.934;8.656;2023-07-20T05:26:08;4.90;;;2.15;;
24559;SDS011;12727;49.934;8.656;2023-07-20T05:28:34;6.72;;;2.20;;
24559;SDS011;12727;49.934;8.656;2023-07-20T05:31:02;4.32;;;1.95;;
24559;SDS011;12727;49.934;8.656;2023-07-20T05:33:28;5.15;;;1.95;;
24559;SDS011;12727;49.934;8.656;2023-07-20T05:35:53;6.53;;;2.05;;
24559;SDS011;12727;49.934;8.656;2023-07-20T05:38:19;5.57;;;2.15;;
24559;SDS011;12727;49.934;8.656;2023-07-20T05:40:45;6.50;;;1.98;;
24559;SDS011;12727;49.934;8.656;2023-07-20T05:43:12;4.97;;;2.40;;
24559;SDS011;12727;49.934;8.656;2023-07-20T05:45:37;3.45;;;1.90;;
24559;SDS011;12727;49.934;8.656;2023-07-20T05:48:06;3.40;;;1.92;;
24559;SDS011;12727;49.934;8.656;2023-07-20T05:50:34;4.03;;;1.83;;
24559;SDS011;12727;49.934;8.656;2023-07-20T05:52:59;8.90;;;2.58;;
24559;SDS011;12727;49.934;8.656;2023-07-20T05:55:24;5.10;;;2.13;;
24559;SDS011;12727;49.934;8.656;2023-07-20T05:57:50;3.80;;;1.73;;
24559;SDS011;12727;49.934;8.656;2023-07-20T06:00:16;5.07;;;2.15;;
24559;SDS011;12727;49.934;8.656;2023-07-20T06:02:44;5.13;;;2.10;;
24559;SDS011;12727;49.934;8.656;2023-07-20T06:05:09;3.80;;;1.60;;
24559;SDS011;12727;49.934;8.656;2023-07-20T06:07:38;6.97;;;2.05;;
24559;SDS011;12727;49.934;8.656;2023-07-20T06:10:04;4.72;;;1.98;;
24559;SDS011;12727;49.934;8.656;2023-07-20T06:12:30;5.25;;;2.17;;
24559;SDS011;12727;49.934;8.656;2023-07-20T06:14:57;3.53;;;2.08;;
24559;SDS011;12727;49.934;8.656;2023-07-20T06:17:23;3.25;;;1.60;;
24559;SDS011;12727;49.934;8.656;2023-07-20T06:19:48;4.65;;;2.13;;
24559;SDS011;12727;49.934;8.656;2023-07-20T06:22:14;4.07;;;1.70;;
24559;SDS011;12727;49.934;8.656;2023-07-20T06:24:40;3.92;;;1.73;;
24559;SDS011;12727;49.934;8.656;2023-07-20T06:27:06;6.18;;;2.10;;
24559;SDS011;12727;49.934;8.656;2023-07-20T06:29:31;3.45;;;1.65;;
24559;SDS011;12727;49.934;8.656;2023-07-20T06:31:57;6.25;;;1.95;;
24559;SDS011;12727;49.934;8.656;2023-07-20T06:34:22;5.43;;;1.88;;
24559;SDS011;12727;49.934;8.656;2023-07-20T06:36:48;6.63;;;1.98;;
24559;SDS011;12727;49.934;8.656;2023-07-20T06:39:14;4.93;;;1.90;;
24559;SDS011;12727;49.934;8.656;2023-07-20T06:41:39;5.82;;;2.33;;
24559;SDS011;12727;49.934;8.656;2023-07-20T06:44:05;5.68;;;1.80;;
24559;SDS011;12727;49.934;8.656;2023-07-20T06:46:31;7.13;;;2.10;;
24559;SDS011;12727;49.934;8.656;2023-07-20T06:48:56;5.03;;;2.00;;
24559;SDS011;12727;49.934;8.656;2023-07-20T06:51:22;4.32;;;1.80;;
24559;SDS011;12727;49.934;8.656;2023-07-20T06:53:47;5.13;;;1.90;;
24559;SDS011;12727;49.934;8.656;2023-07-20T06:56:13;5.60;;;2.25;;
24559;SDS011;12727;49.934;8.656;2023-07-20T06:58:39;6.40;;;1.83;;
24559;SDS011;12727;49.934;8.656;2023-07-20T07:01:08;4.38;;;1.88;;
24559;SDS011;12727;49.934;8.656;2023-07-20T07:03:33;4.82;;;1.48;;
24559;SDS011;12727;49.934;8.656;2023-07-20T07:05:59;3.53;;;1.88;;
24559;SDS011;12727;49.934;8.656;2023-07-20T07:08:25;5.20;;;1.92;;
24559;SDS011;12727;49.934;8.656;2023-07-20T07:10:51;3.90;;;1.73;;
24559;SDS011;12727;49.934;8.656;2023-07-20T07:13:17;4.55;;;2.05;;
24559;SDS011;12727;49.934;8.656;2023-07-20T07:15:43;4.93;;;2.00;;
24559;SDS011;12727;49.934;8.656;2023-07-20T07:18:08;5.20;;;2.05;;
24559;SDS011;12727;49.934;8.656;2023-07-20T07:20:34;4.28;;;1.73;;
24559;SDS011;12727;49.934;8.656;2023-07-20T07:22:59;3.92;;;1.75;;
24559;SDS011;12727;49.934;8.656;2023-07-20T07:25:25;4.28;;;1.80;;
24559;SDS011;12727;49.934;8.656;2023-07-20T07:27:52;4.80;;;1.83;;
24559;SDS011;12727;49.934;8.656;2023-07-20T07:30:18;4.25;;;1.85;;
24559;SDS011;12727;49.934;8.656;2023-07-20T07:32:44;5.78;;;1.92;;
24559;SDS011;12727;49.934;8.656;2023-07-20T07:35:10;3.03;;;1.75;;
24559;SDS011;12727;49.934;8.656;2023-07-20T07:37:35;5.30;;;1.88;;
24559;SDS011;12727;49.934;8.656;2023-07-20T07:40:01;5.45;;;1.70;;
24559;SDS011;12727;49.934;8.656;2023-07-20T07:42:28;5.63;;;1.80;;
24559;SDS011;12727;49.934;8.656;2023-07-20T07:44:54;4.45;;;1.90;;
24559;SDS011;12727;49.934;8.656;2023-07-20T07:47:20;5.25;;;1.75;;
24559;SDS011;12727;49.934;8.656;2023-07-20T07:49:45;4.05;;;1.70;;
24559;SDS011;12727;49.934;8.656;2023-07-20T07:52:11;4.10;;;1.60;;
24559;SDS011;12727;49.934;8.656;2023-07-20T07:54:36;3.67;;;1.90;;
24559;SDS011;12727;49.934;8.656;2023-07-20T07:57:02;4.35;;;1.80;;
24559;SDS011;12727;49.934;8.656;2023-07-20T07:59:28;5.75;;;1.75;;
24559;SDS011;12727;49.934;8.656;2023-07-20T08:01:54;6.90;;;2.20;;
24559;SDS011;12727;49.934;8.656;2023-07-20T08:04:21;4.22;;;1.60;;
24559;SDS011;12727;49.934;8.656;2023-07-20T08:06:47;4.22;;;1.80;;
24559;SDS011;12727;49.934;8.656;2023-07-20T08:09:12;5.75;;;1.85;;
24559;SDS011;12727;49.934;8.656;2023-07-20T08:11:39;3.33;;;1.60;;
24559;SDS011;12727;49.934;8.656;2023-07-20T08:14:05;7.38;;;1.80;;
24559;SDS011;12727;49.934;8.656;2023-07-20T08:16:30;4.55;;;1.88;;
24559;SDS011;12727;49.934;8.656;2023-07-20T08:18:56;3.63;;;1.63;;
24559;SDS011;12727;49.934;8.656;2023-07-20T08:21:21;7.05;;;2.03;;
24559;SDS011;12727;49.934;8.656;2023-07-20T08:23:47;2.58;;;1.60;;
24559;SDS011;12727;49.934;8.656;2023-07-20T08:26:13;5.78;;;1.92;;
24559;SDS011;12727;49.934;8.656;2023-07-20T08:28:39;2.83;;;1.75;;
24559;SDS011;12727;49.934;8.656;2023-07-20T08:31:05;3.22;;;2.00;;
24559;SDS011;12727;49.934;8.656;2023-07-20T08:33:32;5.22;;;2.00;;
24559;SDS011;12727;49.934;8.656;2023-07-20T08:35:58;5.93;;;1.95;;
24559;SDS011;12727;49.934;8.656;2023-07-20T08:38:26;6.35;;;2.10;;
24559;SDS011;12727;49.934;8.656;2023-07-20T08:40:51;3.75;;;1.75;;
24559;SDS011;12727;49.934;8.656;2023-07-20T08:43:19;4.47;;;1.95;;
24559;SDS011;12727;49.934;8.656;2023-07-20T08:45:46;5.80;;;2.05;;
24559;SDS011;12727;49.934;8.656;2023-07-20T08:48:14;4.53;;;1.63;;
24559;SDS011;12727;49.934;8.656;2023-07-20T08:50:41;2.40;;;1.55;;
24559;SDS011;12727;49.934;8.656;2023-07-20T08:53:08;4.30;;;1.50;;
24559;SDS011;12727;49.934;8.656;2023-07-20T08:55:37;3.15;;;1.60;;
24559;SDS011;12727;49.934;8.656;2023-07-20T08:58:04;2.72;;;1.30;;
24559;SDS011;12727;49.934;8.656;2023-07-20T09:00:33;4.82;;;1.50;;
24559;SDS011;12727;49.934;8.656;2023-07-20T09:03:00;2.60;;;1.73;;
24559;SDS011;12727;49.934;8.656;2023-07-20T09:05:28;4.70;;;1.70;;
24559;SDS011;12727;49.934;8.656;2023-07-20T09:07:55;4.72;;;1.38;;
24559;SDS011;12727;49.934;8.656;2023-07-20T09:10:21;2.63;;;1.40;;
24559;SDS011;12727;49.934;8.656;2023-07-20T09:12:47;3.55;;;1.48;;
24559;SDS011;12727;49.934;8.656;2023-07-20T09:15:14;2.60;;;1.50;;
24559;SDS011;12727;49.934;8.656;2023-07-20T09:17:50;4.65;;;1.60;;
24559;SDS011;12727;49.934;8.656;2023-07-20T09:20:18;3.03;;;1.45;;
24559;SDS011;12727;49.934;8.656;2023-07-20T09:22:44;3.35;;;1.55;;
24559;SDS011;12727;49.934;8.656;2023-07-20T09:25:15;3.30;;;1.50;;
24559;SDS011;12727;49.934;8.656;2023-07-20T09:27:44;2.10;;;1.40;;
24559;SDS011;12727;49.934;8.656;2023-07-20T09:30:11;3.58;;;1.52;;
24559;SDS011;12727;49.934;8.656;2023-07-20T09:32:43;2.97;;;1.50;;
24559;SDS011;12727;49.934;8.656;2023-07-20T09:35:13;3.63;;;1.40;;
24559;SDS011;12727;49.934;8.656;2023-07-20T09:40:16;5.65;;;1.33;;
24559;SDS011;12727;49.934;8.656;2023-07-20T09:42:44;3.28;;;1.80;;
24559;SDS011;12727;49.934;8.656;2023-07-20T09:45:10;3.78;;;1.63;;
24559;SDS011;12727;49.934;8.656;2023-07-20T09:47:37;4.80;;;1.60;;
24559;SDS011;12727;49.934;8.656;2023-07-20T09:50:04;3.65;;;1.58;;
24559;SDS011;12727;49.934;8.656;2023-07-20T09:52:35;2.72;;;1.33;;
24559;SDS011;12727;49.934;8.656;2023-07-20T09:55:08;3.33;;;1.42;;
24559;SDS011;12727;49.934;8.656;2023-07-20T09:57:34;2.42;;;1.25;;
24559;SDS011;12727;49.934;8.656;2023-07-20T10:00:04;5.63;;;1.73;;
24559;SDS011;12727;49.934;8.656;2023-07-20T10:02:42;5.05;;;1.45;;
24559;SDS011;12727;49.934;8.656;2023-07-20T10:05:10;3.15;;;1.50;;
24559;SDS011;12727;49.934;8.656;2023-07-20T10:07:43;2.25;;;1.48;;
24559;SDS011;12727;49.934;8.656;2023-07-20T10:10:16;3.25;;;1.25;;
24559;SDS011;12727;49.934;8.656;2023-07-20T10:12:47;2.58;;;1.23;;
24559;SDS011;12727;49.934;8.656;2023-07-20T10:15:20;2.55;;;1.30;;
24559;SDS011;12727;49.934;8.656;2023-07-20T10:17:53;3.80;;;1.20;;
24559;SDS011;12727;49.934;8.656;2023-07-20T10:20:27;4.47;;;1.33;;
24559;SDS011;12727;49.934;8.656;2023-07-20T10:22:54;2.38;;;1.13;;
24559;SDS011;12727;49.934;8.656;2023-07-20T10:25:22;1.67;;;0.98;;
24559;SDS011;12727;49.934;8.656;2023-07-20T10:27:48;2.22;;;1.10;;
24559;SDS011;12727;49.934;8.656;2023-07-20T10:30:14;2.08;;;1.20;;
24559;SDS011;12727;49.934;8.656;2023-07-20T10:32:41;1.85;;;1.30;;
24559;SDS011;12727;49.934;8.656;2023-07-20T10:35:17;3.53;;;1.20;;
24559;SDS011;12727;49.934;8.656;2023-07-20T10:37:46;3.50;;;1.23;;
24559;SDS011;12727;49.934;8.656;2023-07-20T10:43:02;2.60;;;1.20;;
24559;SDS011;12727;49.934;8.656;2023-07-20T10:48:12;1.90;;;1.13;;
24559;SDS011;12727;49.934;8.656;2023-07-20T10:50:44;2.45;;;1.10;;
24559;SDS011;12727;49.934;8.656;2023-07-20T10:53:11;3.40;;;1.50;;
24559;SDS011;12727;49.934;8.656;2023-07-20T10:55:39;1.63;;;1.30;;
24559;SDS011;12727;49.934;8.656;2023-07-20T10:58:08;3.13;;;1.00;;
24559;SDS011;12727;49.934;8.656;2023-07-20T11:00:54;2.30;;;1.20;;
24559;SDS011;12727;49.934;8.656;2023-07-20T11:03:29;3.20;;;1.20;;
24559;SDS011;12727;49.934;8.656;2023-07-20T11:05:56;2.33;;;1.10;;
24559;SDS011;12727;49.934;8.656;2023-07-20T11:08:39;3.30;;;1.52;;
24559;SDS011;12727;49.934;8.656;2023-07-20T11:11:21;3.95;;;1.30;;
24559;SDS011;12727;49.934;8.656;2023-07-20T11:14:01;5.32;;;1.40;;
24559;SDS011;12727;49.934;8.656;2023-07-20T11:16:44;3.90;;;1.20;;
24559;SDS011;12727;49.934;8.656;2023-07-20T11:19:17;3.00;;;1.40;;
24559;SDS011;12727;49.934;8.656;2023-07-20T11:21:55;2.40;;;1.30;;
24559;SDS011;12727;49.934;8.656;2023-07-20T11:24:22;3.03;;;1.25;;
24559;SDS011;12727;49.934;8.656;2023-07-20T11:26:51;3.92;;;1.13;;
24559;SDS011;12727;49.934;8.656;2023-07-20T11:29:19;3.50;;;1.48;;
24559;SDS011;12727;49.934;8.656;2023-07-20T11:31:46;2.03;;;1.30;;
24559;SDS011;12727;49.934;8.656;2023-07-20T11:34:16;2.58;;;1.20;;
24559;SDS011;12727;49.934;8.656;2023-07-20T11:36:43;4.65;;;1.17;;
24559;SDS011;12727;49.934;8.656;2023-07-20T11:39:12;2.55;;;1.35;;
24559;SDS011;12727;49.934;8.656;2023-07-20T11:41:38;3.60;;;1.10;;
24559;SDS011;12727;49.934;8.656;2023-07-20T11:44:09;1.67;;;1.00;;
24559;SDS011;12727;49.934;8.656;2023-07-20T11:46:38;1.73;;;1.20;;
24559;SDS011;12727;49.934;8.656;2023-07-20T11:49:05;2.25;;;1.13;;
24559;SDS011;12727;49.934;8.656;2023-07-20T11:51:30;7.53;;;1.30;;
24559;SDS011;12727;49.934;8.656;2023-07-20T11:53:57;2.85;;;1.30;;
24559;SDS011;12727;49.934;8.656;2023-07-20T11:56:23;1.90;;;1.15;;
24559;SDS011;12727;49.934;8.656;2023-07-20T11:58:50;3.70;;;1.17;;
24559;SDS011;12727;49.934;8.656;2023-07-20T12:01:20;2.88;;;1.25;;
24559;SDS011;12727;49.934;8.656;2023-07-20T12:03:45;2.25;;;1.10;;
24559;SDS011;12727;49.934;8.656;2023-07-20T12:06:13;3.28;;;1.33;;
24559;SDS011;12727;49.934;8.656;2023-07-20T12:08:39;2.75;;;1.10;;
24559;SDS011;12727;49.934;8.656;2023-07-20T12:11:07;1.65;;;0.85;;
24559;SDS011;12727;49.934;8.656;2023-07-20T12:13:37;3.47;;;1.45;;
24559;SDS011;12727;49.934;8.656;2023-07-20T12:16:22;1.88;;;1.30;;
24559;SDS011;12727;49.934;8.656;2023-07-20T12:18:51;5.07;;;1.27;;
24559;SDS011;12727;49.934;8.656;2023-07-20T12:21:31;3.63;;;0.93;;
24559;SDS011;12727;49.934;8.656;2023-07-20T12:23:59;3.17;;;1.40;;
24559;SDS011;12727;49.934;8.656;2023-07-20T12:26:25;2.65;;;1.10;;
24559;SDS011;12727;49.934;8.656;2023-07-20T12:28:54;2.40;;;1.40;;
24559;SDS011;12727;49.934;8.656;2023-07-20T12:31:20;2.08;;;0.93;;
24559;SDS011;12727;49.934;8.656;2023-07-20T12:33:47;1.73;;;1.20;;
24559;SDS011;12727;49.934;8.656;2023-07-20T12:36:13;2.85;;;1.33;;
24559;SDS011;12727;49.934;8.656;2023-07-20T12:38:40;2.42;;;1.20;;
24559;SDS011;12727;49.934;8.656;2023-07-20T12:41:06;2.58;;;1.40;;
24559;SDS011;12727;49.934;8.656;2023-07-20T12:43:37;2.75;;;1.15;;
24559;SDS011;12727;49.934;8.656;2023-07-20T12:46:03;2.53;;;1.10;;
24559;SDS011;12727;49.934;8.656;2023-07-20T12:48:28;3.28;;;1.23;;
24559;SDS011;12727;49.934;8.656;2023-07-20T12:50:54;2.08;;;1.25;;
24559;SDS011;12727;49.934;8.656;2023-07-20T12:53:20;3.58;;;1.20;;
24559;SDS011;12727;49.934;8.656;2023-07-20T12:55:46;5.55;;;1.40;;
24559;SDS011;12727;49.934;8.656;2023-07-20T12:58:11;1.42;;;0.90;;
24559;SDS011;12727;49.934;8.656;2023-07-20T13:00:38;3.00;;;1.20;;
24559;SDS011;12727;49.934;8.656;2023-07-20T13:03:03;3.53;;;1.10;;
24559;SDS011;12727;49.934;8.656;2023-07-20T13:05:30;2.47;;;1.23;;
24559;SDS011;12727;49.934;8.656;2023-07-20T13:07:56;1.42;;;1.00;;
24559;SDS011;12727;49.934;8.656;2023-07-20T13:10:23;2.22;;;1.00;;
24559;SDS011;12727;49.934;8.656;2023-07-20T13:12:49;2.75;;;1.20;;
24559;SDS011;12727;49.934;8.656;2023-07-20T13:15:14;2.15;;;1.15;;
24559;SDS011;12727;49.934;8.656;2023-07-20T13:17:41;6.43;;;1.13;;
24559;SDS011;12727;49.934;8.656;2023-07-20T13:20:07;2.80;;;1.10;;
24559;SDS011;12727;49.934;8.656;2023-07-20T13:22:35;2.97;;;1.38;;
24559;SDS011;12727;49.934;8.656;2023-07-20T13:25:01;3.85;;;1.30;;
24559;SDS011;12727;49.934;8.656;2023-07-20T13:27:27;2.10;;;1.13;;
24559;SDS011;12727;49.934;8.656;2023-07-20T13:29:52;4.13;;;1.48;;
24559;SDS011;12727;49.934;8.656;2023-07-20T13:32:18;2.42;;;1.00;;
24559;SDS011;12727;49.934;8.656;2023-07-20T13:34:44;3.30;;;1.10;;
24559;SDS011;12727;49.934;8.656;2023-07-20T13:37:11;5.78;;;1.27;;
24559;SDS011;12727;49.934;8.656;2023-07-20T13:39:37;1.58;;;1.10;;
24559;SDS011;12727;49.934;8.656;2023-07-20T13:42:03;2.45;;;1.02;;
24559;SDS011;12727;49.934;8.656;2023-07-20T13:44:33;2.90;;;1.40;;
24559;SDS011;12727;49.934;8.656;2023-07-20T13:46:59;4.13;;;1.00;;
24559;SDS011;12727;49.934;8.656;2023-07-20T13:49:25;4.32;;;1.10;;
24559;SDS011;12727;49.934;8.656;2023-07-20T13:51:51;1.55;;;0.90;;
24559;SDS011;12727;49.934;8.656;2023-07-20T13:54:16;4.40;;;1.25;;
24559;SDS011;12727;49.934;8.656;2023-07-20T13:56:42;2.40;;;1.00;;
24559;SDS011;12727;49.934;8.656;2023-07-20T13:59:07;2.20;;;1.00;;
24559;SDS011;12727;49.934;8.656;2023-07-20T14:01:33;2.60;;;1.30;;
24559;SDS011;12727;49.934;8.656;2023-07-20T14:03:59;3.30;;;1.20;;
24559;SDS011;12727;49.934;8.656;2023-07-20T14:06:25;1.80;;;0.80;;
24559;SDS011;12727;49.934;8.656;2023-07-20T14:08:51;4.65;;;1.10;;
24559;SDS011;12727;49.934;8.656;2023-07-20T14:11:18;2.63;;;1.10;;
24559;SDS011;12727;49.934;8.656;2023-07-20T14:13:44;4.45;;;1.40;;
24559;SDS011;12727;49.934;8.656;2023-07-20T14:16:09;2.75;;;1.30;;
24559;SDS011;12727;49.934;8.656;2023-07-20T14:18:35;5.22;;;1.20;;
24559;SDS011;12727;49.934;8.656;2023-07-20T14:21:01;2.78;;;1.08;;
24559;SDS011;12727;49.934;8.656;2023-07-20T14:23:28;3.13;;;1.13;;
24559;SDS011;12727;49.934;8.656;2023-07-20T14:25:54;2.45;;;1.10;;
24559;SDS011;12727;49.934;8.656;2023-07-20T14:28:20;3.25;;;1.10;;
24559;SDS011;12727;49.934;8.656;2023-07-20T14:30:46;2.05;;;1.20;;
24559;SDS011;12727;49.934;8.656;2023-07-20T14:33:11;5.38;;;1.45;;
24559;SDS011;12727;49.934;8.656;2023-07-20T14:35:37;3.13;;;1.10;;
24559;SDS011;12727;49.934;8.656;2023-07-20T14:38:02;3.63;;;1.20;;
24559;SDS011;12727;49.934;8.656;2023-07-20T14:40:28;2.30;;;1.25;;
24559;SDS011;12727;49.934;8.656;2023-07-20T14:42:55;4.00;;;1.20;;
24559;SDS011;12727;49.934;8.656;2023-07-20T14:45:21;3.22;;;1.27;;
24559;SDS011;12727;49.934;8.656;2023-07-20T14:47:46;3.75;;;1.08;;
24559;SDS011;12727;49.934;8.656;2023-07-20T14:50:18;4.43;;;1.42;;
24559;SDS011;12727;49.934;8.656;2023-07-20T14:52:44;3.15;;;1.05;;
24559;SDS011;12727;49.934;8.656;2023-07-20T14:55:10;3.47;;;1.10;;
24559;SDS011;12727;49.934;8.656;2023-07-20T14:57:35;2.97;;;1.40;;
24559;SDS011;12727;49.934;8.656;2023-07-20T15:00:01;2.38;;;1.15;;